createdAt,value
2019-02-17T00:00:51.724Z,77.89
2019-02-17T00:03:22.552Z,77.86
2019-02-17T00:05:53.457Z,78.03
2019-02-17T00:08:24.228Z,78.08
2019-02-17T00:10:55.374Z,78.03
2019-02-17T00:13:26.309Z,78.13
2019-02-17T00:15:57.245Z,78.43
2019-02-17T00:18:28.203Z,78.44
2019-02-17T00:20:59.037Z,78.79
2019-02-17T00:23:30.003Z,79.11
2019-02-17T00:26:00.893Z,78.77
2019-02-17T00:28:31.791Z,78.86
2019-02-17T00:31:02.767Z,78.60
2019-02-17T00:33:33.760Z,78.90
2019-02-17T00:36:04.647Z,78.93
2019-02-17T00:38:35.936Z,79.12
2019-02-17T00:41:06.750Z,79.40
2019-02-17T00:43:37.821Z,79.43
2019-02-17T00:46:09.333Z,79.72
2019-02-17T00:48:40.341Z,79.67
2019-02-17T00:51:11.221Z,79.82
2019-02-17T00:53:42.012Z,79.58
2019-02-17T00:56:12.983Z,79.50
2019-02-17T00:58:43.927Z,79.88
2019-02-17T01:01:14.967Z,80.44
2019-02-17T01:03:45.870Z,80.50
2019-02-17T01:06:16.750Z,80.48
2019-02-17T01:08:47.634Z,80.60
2019-02-17T01:11:18.319Z,80.86
2019-02-17T01:13:49.367Z,80.33
2019-02-17T01:16:20.199Z,80.33
2019-02-17T01:18:51.176Z,80.39
2019-02-17T01:21:22.080Z,80.48
2019-02-17T01:23:53.148Z,80.41
2019-02-17T01:26:24.037Z,80.49
2019-02-17T01:28:55.304Z,80.56
2019-02-17T01:31:26.247Z,80.43
2019-02-17T01:33:57.478Z,80.31
2019-02-17T01:36:28.303Z,80.47
2019-02-17T01:38:59.495Z,80.20
2019-02-17T01:41:30.307Z,80.10
2019-02-17T01:44:01.592Z,80.04
2019-02-17T01:46:32.467Z,80.35
2019-02-17T01:49:03.386Z,80.49
2019-02-17T01:51:34.279Z,80.50
2019-02-17T01:54:05.252Z,80.75
2019-02-17T01:56:36.126Z,80.67
2019-02-17T01:59:07.127Z,80.78
2019-02-17T02:01:37.996Z,80.92
2019-02-17T02:04:09.021Z,80.52
2019-02-17T02:06:39.971Z,80.66
2019-02-17T02:09:11.788Z,80.71
2019-02-17T02:11:42.692Z,80.57
2019-02-17T02:14:13.767Z,80.66
2019-02-17T02:16:44.555Z,80.82
2019-02-17T02:19:15.535Z,80.77
2019-02-17T02:21:47.353Z,80.82
2019-02-17T02:24:18.492Z,81.07
2019-02-17T02:26:49.249Z,81.04
2019-02-17T02:29:20.430Z,81.07
2019-02-17T02:31:51.724Z,81.47
2019-02-17T02:34:23.267Z,82.37
2019-02-17T02:36:54.120Z,82.27
2019-02-17T02:39:25.159Z,82.33
2019-02-17T02:41:56.096Z,81.90
2019-02-17T02:44:27.101Z,81.42
2019-02-17T02:46:57.885Z,80.96
2019-02-17T02:49:28.779Z,80.68
2019-02-17T02:51:59.557Z,80.85
2019-02-17T02:54:30.441Z,80.97
2019-02-17T02:57:01.208Z,81.09
2019-02-17T02:59:32.679Z,81.21
2019-02-17T03:02:03.514Z,81.17
2019-02-17T03:04:34.689Z,80.97
2019-02-17T03:07:08.700Z,81.03
2019-02-17T03:09:39.624Z,81.65
2019-02-17T03:12:10.555Z,82.07
2019-02-17T03:14:41.342Z,81.73
2019-02-17T03:17:12.237Z,81.46
2019-02-17T03:19:43.391Z,81.34
2019-02-17T03:22:14.283Z,81.24
2019-02-17T03:24:46.107Z,81.13
2019-02-17T03:27:16.983Z,81.17
2019-02-17T03:29:48.262Z,81.04
2019-02-17T03:32:19.079Z,81.23
2019-02-17T03:34:50.126Z,81.03
2019-02-17T03:37:21.149Z,80.93
2019-02-17T03:39:52.062Z,81.01
2019-02-17T03:42:23.143Z,81.21
2019-02-17T03:44:54.108Z,81.00
2019-02-17T03:47:25.000Z,80.87
2019-02-17T03:49:55.804Z,80.95
2019-02-17T03:52:26.666Z,80.97
2019-02-17T03:54:58.387Z,80.96
2019-02-17T03:57:29.266Z,80.72
2019-02-17T04:00:00.409Z,81.27
2019-02-17T04:02:31.268Z,81.20
2019-02-17T04:05:02.464Z,81.09
2019-02-17T04:07:34.366Z,81.26
2019-02-17T04:10:05.578Z,81.53
2019-02-17T04:12:36.479Z,81.33
2019-02-17T04:15:07.508Z,81.66
2019-02-17T04:17:38.322Z,81.23
2019-02-17T04:20:09.420Z,80.99
2019-02-17T04:22:41.230Z,81.23
2019-02-17T04:25:12.220Z,81.35
2019-02-17T04:27:43.194Z,81.48
2019-02-17T04:30:14.432Z,81.32
2019-02-17T04:32:45.293Z,81.51
2019-02-17T04:35:16.373Z,81.36
2019-02-17T04:37:47.162Z,81.28
2019-02-17T04:40:18.056Z,81.12
2019-02-17T04:42:48.926Z,81.40
2019-02-17T04:45:19.901Z,81.50
2019-02-17T04:47:50.856Z,81.42
2019-02-17T04:50:21.657Z,81.73
2019-02-17T04:52:52.524Z,81.34
2019-02-17T04:55:23.365Z,81.45
2019-02-17T04:57:54.255Z,81.30
2019-02-17T05:00:25.159Z,81.51
2019-02-17T05:02:56.032Z,81.57
2019-02-17T05:05:27.044Z,81.50
2019-02-17T05:07:57.913Z,81.44
2019-02-17T05:10:28.882Z,81.50
2019-02-17T05:12:59.585Z,81.50
2019-02-17T05:15:30.524Z,81.32
2019-02-17T05:18:01.437Z,81.36
2019-02-17T05:20:32.309Z,81.11
2019-02-17T05:23:03.244Z,81.19
2019-02-17T05:25:34.144Z,81.29
2019-02-17T05:28:05.005Z,81.11
2019-02-17T05:30:35.894Z,81.38
2019-02-17T05:33:06.704Z,81.61
2019-02-17T05:35:37.983Z,81.50
2019-02-17T05:38:08.875Z,81.66
2019-02-17T05:40:39.781Z,81.42
2019-02-17T05:43:10.746Z,81.54
2019-02-17T05:45:41.653Z,81.76
2019-02-17T05:48:12.633Z,82.11
2019-02-17T05:50:43.556Z,82.00
2019-02-17T05:53:14.292Z,82.01
2019-02-17T05:55:45.185Z,81.88
2019-02-17T05:58:15.981Z,81.76
2019-02-17T06:00:46.953Z,81.68
2019-02-17T06:03:17.968Z,81.86
2019-02-17T06:05:48.948Z,81.77
2019-02-17T06:08:19.736Z,81.42
2019-02-17T06:10:50.805Z,81.26
2019-02-17T06:13:21.729Z,81.47
2019-02-17T06:15:52.766Z,81.71
2019-02-17T06:18:23.682Z,81.70
2019-02-17T06:20:54.584Z,81.82
2019-02-17T06:23:25.373Z,81.69
2019-02-17T06:25:56.267Z,81.66
2019-02-17T06:28:27.245Z,81.99
2019-02-17T06:30:58.215Z,82.01
2019-02-17T06:33:29.053Z,81.94
2019-02-17T06:36:02.257Z,81.90
2019-02-17T06:38:33.204Z,81.70
2019-02-17T06:41:03.973Z,81.82
2019-02-17T06:43:35.154Z,82.27
2019-02-17T06:46:06.255Z,82.11
2019-02-17T06:48:37.781Z,82.17
2019-02-17T06:51:08.548Z,82.11
2019-02-17T06:53:39.464Z,81.89
2019-02-17T06:56:31.927Z,81.82
2019-02-17T06:59:02.830Z,81.69
2019-02-17T07:01:33.719Z,81.68
2019-02-17T07:04:05.004Z,81.53
2019-02-17T07:06:38.753Z,81.65
2019-02-17T07:09:09.645Z,81.65
2019-02-17T07:11:40.647Z,81.85
2019-02-17T07:14:11.538Z,81.79
2019-02-17T07:16:42.633Z,81.90
2019-02-17T07:19:14.232Z,81.53
2019-02-17T07:21:45.021Z,81.65
2019-02-17T07:24:16.261Z,82.21
2019-02-17T07:26:47.099Z,82.38
2019-02-17T07:29:17.964Z,82.14
2019-02-17T07:31:48.873Z,82.11
2019-02-17T07:34:19.797Z,81.75
2019-02-17T07:36:50.736Z,81.76
2019-02-17T07:39:21.674Z,81.80
2019-02-17T07:41:52.510Z,81.64
2019-02-17T07:44:23.393Z,81.50
2019-02-17T07:46:54.192Z,81.41
2019-02-17T07:49:25.187Z,81.44
2019-02-17T07:51:56.070Z,81.37
2019-02-17T07:54:27.047Z,81.31
2019-02-17T07:56:57.937Z,81.51
2019-02-17T07:59:28.819Z,81.61
2019-02-17T08:01:59.514Z,81.73
2019-02-17T08:04:30.412Z,82.55
2019-02-17T08:07:01.292Z,82.85
2019-02-17T08:09:32.284Z,82.80
2019-02-17T08:12:05.214Z,82.93
2019-02-17T08:14:36.221Z,82.62
2019-02-17T08:17:07.189Z,83.15
2019-02-17T08:19:38.377Z,83.63
2019-02-17T08:22:09.370Z,83.71
2019-02-17T08:24:40.735Z,83.64
2019-02-17T08:27:11.667Z,83.76
2019-02-17T08:29:42.645Z,83.62
2019-02-17T08:32:13.547Z,83.07
2019-02-17T08:34:44.450Z,82.85
2019-02-17T08:37:15.327Z,82.47
2019-02-17T08:39:46.197Z,82.15
2019-02-17T08:42:16.984Z,81.80
2019-02-17T08:44:47.872Z,81.46
2019-02-17T08:47:18.752Z,81.49
2019-02-17T08:49:49.564Z,81.70
2019-02-17T08:52:20.341Z,81.19
2019-02-17T08:54:51.236Z,80.65
2019-02-17T08:57:22.002Z,80.30
2019-02-17T08:59:53.072Z,80.03
2019-02-17T09:02:23.872Z,79.92
2019-02-17T09:04:54.860Z,79.16
2019-02-17T09:07:25.920Z,78.65
2019-02-17T09:09:56.760Z,78.33
2019-02-17T09:12:27.524Z,78.04
2019-02-17T09:14:58.417Z,77.87
2019-02-17T09:17:29.205Z,78.00
2019-02-17T09:20:00.302Z,77.54
2019-02-17T09:22:31.296Z,76.73
2019-02-17T09:25:02.287Z,77.04
2019-02-17T09:27:33.077Z,76.16
2019-02-17T09:30:04.044Z,76.53
2019-02-17T09:32:34.836Z,76.62
2019-02-17T09:35:06.211Z,76.10
2019-02-17T09:37:37.132Z,75.33
2019-02-17T09:40:09.704Z,75.63
2019-02-17T09:42:40.633Z,75.61
2019-02-17T09:45:12.745Z,74.64
2019-02-17T09:47:43.548Z,74.83
2019-02-17T09:50:14.939Z,74.76
2019-02-17T09:52:47.013Z,74.73
2019-02-17T09:55:17.944Z,74.16
2019-02-17T09:57:48.824Z,73.93
2019-02-17T10:00:19.836Z,73.24
2019-02-17T10:02:50.616Z,72.54
2019-02-17T10:05:21.520Z,72.27
2019-02-17T10:07:52.383Z,71.36
2019-02-17T10:10:23.274Z,71.20
2019-02-17T10:12:54.147Z,70.55
2019-02-17T10:15:25.135Z,70.98
2019-02-17T10:17:55.940Z,70.39
2019-02-17T10:20:26.839Z,68.34
2019-02-17T10:22:57.705Z,68.38
2019-02-17T10:25:28.999Z,67.17
2019-02-17T10:27:59.797Z,67.07
2019-02-17T10:30:30.935Z,66.83
2019-02-17T10:33:01.760Z,65.19
2019-02-17T10:35:32.674Z,63.25
2019-02-17T10:38:03.630Z,63.49
2019-02-17T10:40:34.580Z,64.18
2019-02-17T10:43:05.636Z,64.84
2019-02-17T10:45:36.615Z,63.72
2019-02-17T10:48:07.411Z,64.74
2019-02-17T10:50:39.282Z,64.09
2019-02-17T10:53:10.208Z,63.23
2019-02-17T10:55:41.199Z,62.50
2019-02-17T10:58:12.066Z,59.89
2019-02-17T11:00:42.947Z,57.67
2019-02-17T11:03:13.880Z,58.65
2019-02-17T11:05:44.702Z,56.50
2019-02-17T11:08:15.695Z,56.73
2019-02-17T11:10:46.555Z,58.72
2019-02-17T11:13:17.441Z,59.03
2019-02-17T11:15:48.232Z,58.50
2019-02-17T11:18:19.058Z,58.92
2019-02-17T11:20:49.924Z,60.61
2019-02-17T11:23:20.744Z,60.21
2019-02-17T11:25:51.691Z,59.54
2019-02-17T11:28:22.675Z,60.18
2019-02-17T11:30:53.562Z,60.48
2019-02-17T11:33:24.407Z,58.07
2019-02-17T11:35:55.294Z,59.06
2019-02-17T11:38:26.066Z,55.72
2019-02-17T11:40:56.999Z,56.28
2019-02-17T11:43:27.899Z,57.59
2019-02-17T11:45:58.679Z,55.87
2019-02-17T11:48:29.410Z,55.41
2019-02-17T11:51:01.046Z,56.78
2019-02-17T11:53:31.924Z,56.49
2019-02-17T11:56:03.880Z,52.66
2019-02-17T11:58:34.774Z,54.37
2019-02-17T12:01:05.655Z,51.52
2019-02-17T12:03:36.591Z,52.71
2019-02-17T12:06:07.499Z,48.56
2019-02-17T12:08:38.466Z,51.71
2019-02-17T12:11:09.202Z,47.10
2019-02-17T12:13:40.079Z,47.98
2019-02-17T12:16:10.966Z,49.30
2019-02-17T12:18:41.711Z,47.29
2019-02-17T12:21:18.323Z,50.25
2019-02-17T12:24:08.051Z,49.63
2019-02-17T12:26:53.594Z,49.40
2019-02-17T12:29:34.715Z,48.02
2019-02-17T12:32:05.649Z,47.80
2019-02-17T12:34:36.614Z,49.45
2019-02-17T12:37:07.434Z,48.41
2019-02-17T12:39:38.323Z,50.64
2019-02-17T12:42:09.210Z,49.48
2019-02-17T12:44:40.200Z,49.20
2019-02-17T12:47:11.067Z,49.11
2019-02-17T12:49:41.818Z,48.08
2019-02-17T12:52:12.695Z,47.23
2019-02-17T12:54:43.490Z,47.30
2019-02-17T12:57:14.422Z,48.36
2019-02-17T12:59:45.256Z,45.29
2019-02-17T13:02:16.148Z,47.09
2019-02-17T13:04:46.991Z,46.79
2019-02-17T13:07:17.839Z,47.65
2019-02-17T13:09:48.610Z,48.92
2019-02-17T13:12:19.491Z,48.44
2019-02-17T13:14:50.372Z,48.86
2019-02-17T13:17:21.265Z,48.74
2019-02-17T13:19:52.042Z,48.66
2019-02-17T13:22:23.854Z,47.94
2019-02-17T13:24:54.712Z,46.58
2019-02-17T13:27:26.033Z,50.36
2019-02-17T13:29:56.824Z,48.20
2019-02-17T13:32:27.818Z,47.51
2019-02-17T13:34:58.612Z,49.57
2019-02-17T13:37:30.266Z,46.88
2019-02-17T13:40:01.191Z,46.53
2019-02-17T13:42:33.189Z,48.50
2019-02-17T13:45:04.096Z,51.30
2019-02-17T13:47:35.001Z,47.71
2019-02-17T13:50:05.994Z,47.68
2019-02-17T13:52:36.872Z,49.86
2019-02-17T13:55:07.941Z,51.55
2019-02-17T13:57:39.126Z,52.58
2019-02-17T14:00:14.247Z,51.20
2019-02-17T14:02:45.238Z,50.19
2019-02-17T14:05:16.122Z,53.89
2019-02-17T14:07:47.010Z,53.02
2019-02-17T14:10:17.888Z,51.72
2019-02-17T14:12:48.962Z,52.61
2019-02-17T14:15:19.791Z,52.38
2019-02-17T14:17:50.954Z,51.93
2019-02-17T14:20:21.648Z,50.37
2019-02-17T14:22:52.785Z,52.66
2019-02-17T14:25:23.609Z,51.57
2019-02-17T14:27:54.970Z,52.13
2019-02-17T14:30:25.921Z,53.04
2019-02-17T14:32:57.102Z,52.80
2019-02-17T14:35:28.931Z,51.99
2019-02-17T14:37:59.799Z,51.30
2019-02-17T14:40:30.586Z,54.72
2019-02-17T14:43:01.462Z,52.87
2019-02-17T14:45:32.565Z,53.24
2019-02-17T14:48:03.414Z,52.43
2019-02-17T14:50:34.306Z,52.13
2019-02-17T14:53:05.186Z,51.18
2019-02-17T14:55:36.093Z,54.27
2019-02-17T14:58:06.943Z,53.52
2019-02-17T15:00:37.832Z,52.91
2019-02-17T15:03:08.618Z,51.38
2019-02-17T15:05:39.664Z,51.21
2019-02-17T15:08:10.514Z,53.36
2019-02-17T15:10:41.503Z,51.65
2019-02-17T15:13:12.290Z,53.90
2019-02-17T15:15:43.628Z,51.93
2019-02-17T15:18:22.447Z,51.89
2019-02-17T15:20:53.734Z,53.44
2019-02-17T15:23:24.543Z,51.17
2019-02-17T15:25:56.567Z,51.56
2019-02-17T15:28:27.547Z,53.19
2019-02-17T15:30:58.513Z,51.04
2019-02-17T15:33:29.425Z,51.63
2019-02-17T15:36:00.298Z,52.04
2019-02-17T15:38:31.085Z,53.79
2019-02-17T15:41:02.056Z,52.95
2019-02-17T15:43:32.922Z,55.22
2019-02-17T15:46:03.905Z,54.35
2019-02-17T15:48:34.800Z,54.04
2019-02-17T15:51:06.812Z,54.85
2019-02-17T15:53:38.562Z,56.32
2019-02-17T15:56:09.509Z,56.35
2019-02-17T15:58:40.493Z,56.25
2019-02-17T16:01:12.392Z,55.78
2019-02-17T16:03:44.953Z,56.43
2019-02-17T16:06:15.930Z,56.35
2019-02-17T16:08:47.057Z,56.09
2019-02-17T16:11:18.007Z,55.81
2019-02-17T16:13:48.952Z,56.32
2019-02-17T16:16:19.936Z,57.02
2019-02-17T16:18:50.705Z,56.94
2019-02-17T16:21:23.517Z,57.61
2019-02-17T16:23:53.876Z,58.03
2019-02-17T16:26:24.762Z,58.96
2019-02-17T16:28:55.604Z,59.75
2019-02-17T16:31:27.615Z,59.76
2019-02-17T16:33:58.402Z,59.71
2019-02-17T16:36:29.241Z,59.34
2019-02-17T16:39:00.311Z,59.48
2019-02-17T16:41:32.020Z,59.56
2019-02-17T16:44:02.970Z,59.57
2019-02-17T16:46:33.746Z,59.80
2019-02-17T16:49:04.632Z,59.57
2019-02-17T16:51:35.468Z,59.14
2019-02-17T16:54:06.363Z,59.01
2019-02-17T16:56:37.259Z,59.11
2019-02-17T16:59:08.152Z,59.10
2019-02-17T17:01:39.138Z,59.23
2019-02-17T17:04:10.230Z,59.50
2019-02-17T17:06:41.106Z,58.97
2019-02-17T17:09:12.281Z,59.05
2019-02-17T17:11:43.197Z,59.25
2019-02-17T17:14:14.934Z,59.54
2019-02-17T17:16:45.714Z,59.83
2019-02-17T17:19:16.632Z,59.79
2019-02-17T17:21:47.609Z,59.79
2019-02-17T17:24:18.605Z,60.19
2019-02-17T17:26:49.671Z,60.32
2019-02-17T17:29:20.473Z,62.64
2019-02-17T17:31:51.342Z,61.97
2019-02-17T17:34:24.798Z,63.17
2019-02-17T17:36:55.808Z,64.28
2019-02-17T17:39:26.776Z,64.29
2019-02-17T17:41:57.641Z,63.13
2019-02-17T17:44:28.663Z,61.67
2019-02-17T17:46:59.439Z,60.95
2019-02-17T17:49:30.434Z,60.17
2019-02-17T17:52:01.343Z,58.99
2019-02-17T17:54:31.913Z,56.11
2019-02-17T17:57:02.990Z,55.75
2019-02-17T17:59:33.793Z,55.95
2019-02-17T18:02:04.794Z,55.21
2019-02-17T18:04:35.566Z,55.61
2019-02-17T18:07:07.165Z,55.28
2019-02-17T18:09:37.722Z,53.86
2019-02-17T18:12:08.825Z,53.81
2019-02-17T18:14:39.633Z,51.77
2019-02-17T18:17:10.624Z,53.93
2019-02-17T18:19:41.514Z,54.30
2019-02-17T18:22:12.234Z,54.50
2019-02-17T18:24:42.773Z,55.10
2019-02-17T18:27:14.416Z,55.86
2019-02-17T18:29:45.245Z,54.84
2019-02-17T18:32:16.130Z,55.04
2019-02-17T18:34:47.028Z,54.99
2019-02-17T18:37:17.926Z,54.96
2019-02-17T18:39:48.708Z,54.49
2019-02-17T18:42:19.610Z,54.68
2019-02-17T18:44:50.366Z,54.79
2019-02-17T18:47:21.252Z,54.87
2019-02-17T18:49:52.061Z,55.78
2019-02-17T18:52:22.930Z,55.75
2019-02-17T18:54:53.717Z,56.19
2019-02-17T18:57:24.798Z,56.12
2019-02-17T18:59:55.606Z,56.38
2019-02-17T19:02:26.569Z,57.03
2019-02-17T19:04:57.361Z,57.29
2019-02-17T19:07:28.352Z,57.19
2019-02-17T19:10:00.317Z,57.97
2019-02-17T19:12:31.438Z,58.79
2019-02-17T19:15:02.261Z,58.87
2019-02-17T19:17:33.441Z,59.34
2019-02-17T19:20:04.655Z,60.04
2019-02-17T19:22:35.650Z,60.50
2019-02-17T19:25:06.737Z,59.33
2019-02-17T19:27:37.609Z,60.43
2019-02-17T19:30:09.105Z,59.57
2019-02-17T19:32:40.010Z,60.42
2019-02-17T19:35:11.930Z,59.75
2019-02-17T19:37:44.333Z,60.85
2019-02-17T19:40:14.821Z,62.42
2019-02-17T19:42:45.710Z,61.49
2019-02-17T19:45:16.397Z,62.37
2019-02-17T19:47:48.297Z,63.14
2019-02-17T19:50:19.362Z,62.90
2019-02-17T19:52:50.189Z,62.83
2019-02-17T19:55:21.174Z,63.50
2019-02-17T19:57:51.991Z,63.72
2019-02-17T20:00:22.847Z,63.32
2019-02-17T20:03:11.794Z,63.00
2019-02-17T20:05:51.685Z,64.25
2019-02-17T20:08:18.144Z,64.23
2019-02-17T20:10:49.005Z,64.21
2019-02-17T20:13:19.911Z,64.29
2019-02-17T20:15:51.134Z,63.80
2019-02-17T20:18:22.128Z,63.94
2019-02-17T20:20:53.014Z,64.52
2019-02-17T20:23:24.815Z,63.99
2019-02-17T20:25:57.870Z,64.82
2019-02-17T20:28:40.581Z,64.32
2019-02-17T20:31:00.989Z,66.53
2019-02-17T20:33:31.783Z,66.54
2019-02-17T20:36:03.230Z,66.77
2019-02-17T20:38:36.337Z,65.99
2019-02-17T20:41:07.230Z,64.25
2019-02-17T20:43:38.255Z,65.56
2019-02-17T20:46:09.125Z,65.76
2019-02-17T20:48:40.496Z,66.06
2019-02-17T20:51:11.504Z,67.22
2019-02-17T20:53:42.387Z,67.23
2019-02-17T20:56:13.269Z,67.62
2019-02-17T20:58:44.243Z,67.22
2019-02-17T21:01:15.410Z,67.17
2019-02-17T21:03:46.541Z,66.95
2019-02-17T21:06:17.446Z,67.08
2019-02-17T21:08:48.350Z,66.99
2019-02-17T21:11:19.129Z,67.54
2019-02-17T21:13:50.006Z,67.74
2019-02-17T21:16:21.048Z,67.86
2019-02-17T21:18:51.861Z,67.30
2019-02-17T21:21:22.762Z,67.20
2019-02-17T21:23:53.652Z,66.35
2019-02-17T21:26:26.414Z,66.38
2019-02-17T21:28:57.165Z,66.60
2019-02-17T21:31:28.062Z,65.77
2019-02-17T21:33:58.942Z,66.29
2019-02-17T21:36:29.835Z,64.96
2019-02-17T21:39:00.730Z,65.41
2019-02-17T21:41:33.052Z,66.35
2019-02-17T21:44:04.054Z,66.11
2019-02-17T21:46:35.213Z,66.21
2019-02-17T21:49:06.112Z,66.78
2019-02-17T21:51:37.014Z,67.41
2019-02-17T21:54:08.089Z,68.04
2019-02-17T21:56:38.888Z,68.51
2019-02-17T21:59:09.759Z,68.94
2019-02-17T22:01:40.547Z,69.33
2019-02-17T22:04:11.837Z,69.37
2019-02-17T22:06:42.745Z,69.61
2019-02-17T22:09:13.924Z,69.96
2019-02-17T22:11:44.812Z,69.42
2019-02-17T22:14:15.772Z,65.53
2019-02-17T22:16:46.602Z,63.87
2019-02-17T22:19:17.783Z,66.57
2019-02-17T22:21:48.866Z,63.64
2019-02-17T22:24:19.914Z,63.08
2019-02-17T22:26:50.850Z,65.11
2019-02-17T22:29:21.854Z,66.31
2019-02-17T22:31:52.647Z,67.58
2019-02-17T22:34:24.252Z,68.83
2019-02-17T22:36:55.032Z,69.98
2019-02-17T22:39:26.214Z,70.49
2019-02-17T22:41:56.992Z,70.68
2019-02-17T22:44:27.890Z,71.30
2019-02-17T22:46:58.782Z,71.21
2019-02-17T22:49:29.662Z,71.46
2019-02-17T22:52:00.584Z,71.79
2019-02-17T22:54:31.517Z,71.73
2019-02-17T22:57:02.343Z,72.01
2019-02-17T22:59:33.206Z,71.75
2019-02-17T23:02:04.270Z,71.43
2019-02-17T23:04:35.217Z,71.44
2019-02-17T23:07:06.093Z,72.40
2019-02-17T23:09:37.159Z,72.12
2019-02-17T23:12:08.176Z,71.24
2019-02-17T23:14:39.568Z,71.28
2019-02-17T23:17:10.446Z,71.20
2019-02-17T23:19:41.445Z,71.39
2019-02-17T23:22:12.221Z,71.22
2019-02-17T23:24:43.221Z,71.45
2019-02-17T23:27:14.059Z,71.97
2019-02-17T23:29:44.849Z,71.98
2019-02-17T23:32:15.774Z,72.19
2019-02-17T23:34:47.282Z,72.55
2019-02-17T23:37:18.418Z,72.39
2019-02-17T23:39:49.305Z,72.01
2019-02-17T23:42:20.296Z,72.45
2019-02-17T23:44:51.089Z,73.08
2019-02-17T23:47:22.073Z,72.39
2019-02-17T23:49:52.964Z,72.37
2019-02-17T23:52:24.004Z,72.84
2019-02-17T23:54:54.863Z,73.30
2019-02-17T23:57:25.953Z,73.44
2019-02-17T23:59:56.813Z,73.12
